sensor_id;sensor_type;location;lat;lon;timestamp;pressure;altitude;pressure_sealevel;temperature;humidity
6096;BME280;25081;42.698;23.298;2023-12-20T00:01:49;95681.14;;;-0.69;100.00
6096;BME280;25081;42.698;23.298;2023-12-20T00:04:00;95678.77;;;-0.76;100.00
6096;BME280;25081;42.698;23.298;2023-12-20T00:06:11;95671.11;;;-0.73;100.00
6096;BME280;25081;42.698;23.298;2023-12-20T00:08:21;95674.20;;;-0.74;100.00
6096;BME280;25081;42.698;23.298;2023-12-20T00:10:32;95671.11;;;-0.73;100.00
6096;BME280;25081;42.698;23.298;2023-12-20T00:12:42;95668.69;;;-0.71;100.00
6096;BME280;25081;42.698;23.298;2023-12-20T00:14:53;95666.98;;;-0.76;100.00
6096;BME280;25081;42.698;23.298;2023-12-20T00:17:04;95665.20;;;-0.85;100.00
6096;BME280;25081;42.698;23.298;2023-12-20T00:19:14;95666.98;;;-0.76;100.00
6096;BME280;25081;42.698;23.298;2023-12-20T00:21:25;95663.80;;;-0.79;100.00
6096;BME280;25081;42.698;23.298;2023-12-20T00:23:38;95655.06;;;-0.84;100.00
6096;BME280;25081;42.698;23.298;2023-12-20T00:25:49;95658.99;;;-0.84;100.00
6096;BME280;25081;42.698;23.298;2023-12-20T00:27:59;95647.84;;;-0.86;100.00
6096;BME280;25081;42.698;23.298;2023-12-20T00:30:12;95646.59;;;-0.82;100.00
6096;BME280;25081;42.698;23.298;2023-12-20T00:32:22;95646.05;;;-0.95;100.00
6096;BME280;25081;42.698;23.298;2023-12-20T00:34:33;95639.03;;;-0.95;100.00
6096;BME280;25081;42.698;23.298;2023-12-20T00:36:43;95633.85;;;-0.91;100.00
6096;BME280;25081;42.698;23.298;2023-12-20T00:38:54;95635.79;;;-0.93;100.00
6096;BME280;25081;42.698;23.298;2023-12-20T00:41:04;95635.98;;;-0.90;100.00
6096;BME280;25081;42.698;23.298;2023-12-20T00:43:15;95631.58;;;-0.90;100.00
6096;BME280;25081;42.698;23.298;2023-12-20T00:45:25;95634.61;;;-0.84;100.00
6096;BME280;25081;42.698;23.298;2023-12-20T00:47:36;95634.52;;;-0.79;100.00
6096;BME280;25081;42.698;23.298;2023-12-20T00:49:46;95622.02;;;-0.85;100.00
6096;BME280;25081;42.698;23.298;2023-12-20T00:51:57;95620.61;;;-0.79;100.00
6096;BME280;25081;42.698;23.298;2023-12-20T00:54:07;95628.06;;;-0.75;100.00
6096;BME280;25081;42.698;23.298;2023-12-20T00:56:18;95624.39;;;-0.78;100.00
6096;BME280;25081;42.698;23.298;2023-12-20T00:58:28;95624.78;;;-0.87;100.00
6096;BME280;25081;42.698;23.298;2023-12-20T01:00:39;95618.98;;;-0.90;100.00
6096;BME280;25081;42.698;23.298;2023-12-20T01:02:50;95615.39;;;-0.89;100.00
6096;BME280;25081;42.698;23.298;2023-12-20T01:05:00;95613.47;;;-0.97;100.00
6096;BME280;25081;42.698;23.298;2023-12-20T01:07:11;95607.69;;;-0.91;100.00
6096;BME280;25081;42.698;23.298;2023-12-20T01:09:22;95606.52;;;-0.92;100.00
6096;BME280;25081;42.698;23.298;2023-12-20T01:11:32;95608.31;;;-0.93;100.00
6096;BME280;25081;42.698;23.298;2023-12-20T01:13:43;95601.29;;;-0.92;100.00
6096;BME280;25081;42.698;23.298;2023-12-20T01:15:53;95604.40;;;-1.02;100.00
6096;BME280;25081;42.698;23.298;2023-12-20T01:18:04;95599.22;;;-0.98;100.00
6096;BME280;25081;42.698;23.298;2023-12-20T01:20:15;95595.15;;;-0.97;100.00
6096;BME280;25081;42.698;23.298;2023-12-20T01:22:26;95596.84;;;-1.05;100.00
6096;BME280;25081;42.698;23.298;2023-12-20T01:24:37;95591.72;;;-1.07;100.00
6096;BME280;25081;42.698;23.298;2023-12-20T01:26:48;95594.70;;;-1.06;100.00
6096;BME280;25081;42.698;23.298;2023-12-20T01:28:58;95591.12;;;-1.05;100.00
6096;BME280;25081;42.698;23.298;2023-12-20T01:31:09;95582.84;;;-1.00;100.00
6096;BME280;25081;42.698;23.298;2023-12-20T01:33:19;95592.77;;;-1.04;100.00
6096;BME280;25081;42.698;23.298;2023-12-20T01:35:30;95574.59;;;-1.05;100.00
6096;BME280;25081;42.698;23.298;2023-12-20T01:37:40;95570.11;;;-1.09;100.00
6096;BME280;25081;42.698;23.298;2023-12-20T01:39:51;95577.97;;;-1.19;100.00
6096;BME280;25081;42.698;23.298;2023-12-20T01:42:01;95569.63;;;-1.18;100.00
6096;BME280;25081;42.698;23.298;2023-12-20T01:44:12;95568.66;;;-1.17;100.00
6096;BME280;25081;42.698;23.298;2023-12-20T01:46:22;95563.53;;;-1.23;100.00
6096;BME280;25081;42.698;23.298;2023-12-20T01:48:33;95558.44;;;-1.24;100.00
6096;BME280;25081;42.698;23.298;2023-12-20T01:50:44;95552.92;;;-1.21;100.00
6096;BME280;25081;42.698;23.298;2023-12-20T01:52:55;95549.87;;;-1.26;100.00
6096;BME280;25081;42.698;23.298;2023-12-20T01:55:07;95545.62;;;-1.27;100.00
6096;BME280;25081;42.698;23.298;2023-12-20T01:57:17;95543.28;;;-1.21;100.00
6096;BME280;25081;42.698;23.298;2023-12-20T01:59:28;95549.34;;;-1.30;100.00
6096;BME280;25081;42.698;23.298;2023-12-20T02:01:38;95544.66;;;-1.26;100.00
6096;BME280;25081;42.698;23.298;2023-12-20T02:03:49;95545.08;;;-1.21;100.00
6096;BME280;25081;42.698;23.298;2023-12-20T02:05:59;95543.83;;;-1.27;100.00
6096;BME280;25081;42.698;23.298;2023-12-20T02:08:10;95538.68;;;-1.23;100.00
6096;BME280;25081;42.698;23.298;2023-12-20T02:10:20;95538.89;;;-1.30;100.00
6096;BME280;25081;42.698;23.298;2023-12-20T02:12:30;95527.78;;;-1.18;100.00
6096;BME280;25081;42.698;23.298;2023-12-20T02:14:41;95528.48;;;-1.26;100.00
6096;BME280;25081;42.698;23.298;2023-12-20T02:16:52;95530.16;;;-1.25;100.00
6096;BME280;25081;42.698;23.298;2023-12-20T02:19:02;95528.70;;;-1.23;100.00
6096;BME280;25081;42.698;23.298;2023-12-20T02:21:13;95520.23;;;-1.31;100.00
6096;BME280;25081;42.698;23.298;2023-12-20T02:23:23;95518.30;;;-1.29;100.00
6096;BME280;25081;42.698;23.298;2023-12-20T02:25:34;95516.11;;;-1.24;100.00
6096;BME280;25081;42.698;23.298;2023-12-20T02:27:44;95517.77;;;-1.23;100.00
6096;BME280;25081;42.698;23.298;2023-12-20T02:29:55;95516.16;;;-1.20;100.00
6096;BME280;25081;42.698;23.298;2023-12-20T02:32:06;95514.72;;;-1.28;100.00
6096;BME280;25081;42.698;23.298;2023-12-20T02:34:17;95513.51;;;-1.33;100.00
6096;BME280;25081;42.698;23.298;2023-12-20T02:36:27;95507.80;;;-1.33;100.00
6096;BME280;25081;42.698;23.298;2023-12-20T02:38:38;95509.65;;;-1.39;100.00
6096;BME280;25081;42.698;23.298;2023-12-20T02:40:48;95507.94;;;-1.34;100.00
6096;BME280;25081;42.698;23.298;2023-12-20T02:42:59;95501.32;;;-1.38;100.00
6096;BME280;25081;42.698;23.298;2023-12-20T02:45:10;95498.99;;;-1.41;100.00
6096;BME280;25081;42.698;23.298;2023-12-20T02:47:20;95496.52;;;-1.43;100.00
6096;BME280;25081;42.698;23.298;2023-12-20T02:49:31;95491.84;;;-1.49;100.00
6096;BME280;25081;42.698;23.298;2023-12-20T02:51:41;95490.14;;;-1.54;100.00
6096;BME280;25081;42.698;23.298;2023-12-20T02:53:52;95497.21;;;-1.51;100.00
6096;BME280;25081;42.698;23.298;2023-12-20T02:56:03;95493.34;;;-1.47;100.00
6096;BME280;25081;42.698;23.298;2023-12-20T02:58:13;95494.25;;;-1.52;100.00
6096;BME280;25081;42.698;23.298;2023-12-20T03:00:24;95497.89;;;-1.49;100.00
6096;BME280;25081;42.698;23.298;2023-12-20T03:02:34;95498.31;;;-1.43;100.00
6096;BME280;25081;42.698;23.298;2023-12-20T03:04:45;95499.48;;;-1.42;100.00
6096;BME280;25081;42.698;23.298;2023-12-20T03:06:56;95497.39;;;-1.38;100.00
6096;BME280;25081;42.698;23.298;2023-12-20T03:09:06;95499.03;;;-1.28;100.00
6096;BME280;25081;42.698;23.298;2023-12-20T03:11:16;95493.31;;;-1.27;100.00
6096;BME280;25081;42.698;23.298;2023-12-20T03:13:27;95496.37;;;-1.32;100.00
6096;BME280;25081;42.698;23.298;2023-12-20T03:15:37;95496.04;;;-1.42;100.00
6096;BME280;25081;42.698;23.298;2023-12-20T03:17:48;95491.83;;;-1.39;100.00
6096;BME280;25081;42.698;23.298;2023-12-20T03:19:58;95488.44;;;-1.36;100.00
6096;BME280;25081;42.698;23.298;2023-12-20T03:22:09;95487.08;;;-1.40;100.00
6096;BME280;25081;42.698;23.298;2023-12-20T03:24:20;95490.47;;;-1.43;100.00
6096;BME280;25081;42.698;23.298;2023-12-20T03:26:30;95484.91;;;-1.45;100.00
6096;BME280;25081;42.698;23.298;2023-12-20T03:28:41;95476.64;;;-1.59;100.00
6096;BME280;25081;42.698;23.298;2023-12-20T03:30:51;95478.57;;;-1.52;100.00
6096;BME280;25081;42.698;23.298;2023-12-20T03:33:02;95477.27;;;-1.52;100.00
6096;BME280;25081;42.698;23.298;2023-12-20T03:35:13;95482.80;;;-1.22;100.00
6096;BME280;25081;42.698;23.298;2023-12-20T03:37:23;95475.52;;;-1.37;100.00
6096;BME280;25081;42.698;23.298;2023-12-20T03:39:34;95470.96;;;-1.35;100.00
6096;BME280;25081;42.698;23.298;2023-12-20T03:41:45;95475.95;;;-1.42;100.00
6096;BME280;25081;42.698;23.298;2023-12-20T03:43:55;95477.64;;;-1.37;100.00
6096;BME280;25081;42.698;23.298;2023-12-20T03:46:06;95472.16;;;-1.34;100.00
6096;BME280;25081;42.698;23.298;2023-12-20T03:48:16;95472.41;;;-1.37;100.00
6096;BME280;25081;42.698;23.298;2023-12-20T03:50:27;95469.62;;;-1.49;100.00
6096;BME280;25081;42.698;23.298;2023-12-20T03:52:37;95472.19;;;-1.63;100.00
6096;BME280;25081;42.698;23.298;2023-12-20T03:54:48;95463.58;;;-1.59;100.00
6096;BME280;25081;42.698;23.298;2023-12-20T03:56:58;95466.20;;;-1.88;100.00
6096;BME280;25081;42.698;23.298;2023-12-20T03:59:09;95469.35;;;-1.75;100.00
6096;BME280;25081;42.698;23.298;2023-12-20T04:01:19;95465.66;;;-1.72;100.00
6096;BME280;25081;42.698;23.298;2023-12-20T04:03:30;95465.70;;;-1.49;100.00
6096;BME280;25081;42.698;23.298;2023-12-20T04:05:41;95463.70;;;-1.41;100.00
6096;BME280;25081;42.698;23.298;2023-12-20T04:07:51;95459.80;;;-1.51;100.00
6096;BME280;25081;42.698;23.298;2023-12-20T04:10:02;95458.68;;;-1.49;100.00
6096;BME280;25081;42.698;23.298;2023-12-20T04:12:13;95453.26;;;-1.51;100.00
6096;BME280;25081;42.698;23.298;2023-12-20T04:14:24;95446.91;;;-1.49;100.00
6096;BME280;25081;42.698;23.298;2023-12-20T04:16:34;95451.47;;;-1.51;100.00
6096;BME280;25081;42.698;23.298;2023-12-20T04:18:45;95447.73;;;-1.48;100.00
6096;BME280;25081;42.698;23.298;2023-12-20T04:20:56;95447.06;;;-1.50;100.00
6096;BME280;25081;42.698;23.298;2023-12-20T04:23:06;95445.69;;;-1.45;100.00
6096;BME280;25081;42.698;23.298;2023-12-20T04:25:16;95438.95;;;-1.66;100.00
6096;BME280;25081;42.698;23.298;2023-12-20T04:27:27;95435.27;;;-1.83;100.00
6096;BME280;25081;42.698;23.298;2023-12-20T04:29:37;95433.52;;;-1.59;100.00
6096;BME280;25081;42.698;23.298;2023-12-20T04:31:48;95434.36;;;-1.78;100.00
6096;BME280;25081;42.698;23.298;2023-12-20T04:33:59;95428.37;;;-1.84;100.00
6096;BME280;25081;42.698;23.298;2023-12-20T04:36:09;95436.56;;;-1.64;100.00
6096;BME280;25081;42.698;23.298;2023-12-20T04:38:20;95428.89;;;-1.42;100.00
6096;BME280;25081;42.698;23.298;2023-12-20T04:40:31;95424.18;;;-1.62;100.00
6096;BME280;25081;42.698;23.298;2023-12-20T04:42:41;95429.61;;;-1.36;100.00
6096;BME280;25081;42.698;23.298;2023-12-20T04:44:52;95427.00;;;-1.69;100.00
6096;BME280;25081;42.698;23.298;2023-12-20T04:47:02;95428.70;;;-1.45;100.00
6096;BME280;25081;42.698;23.298;2023-12-20T04:49:13;95424.19;;;-1.38;100.00
6096;BME280;25081;42.698;23.298;2023-12-20T04:51:23;95424.61;;;-1.33;100.00
6096;BME280;25081;42.698;23.298;2023-12-20T04:53:34;95418.55;;;-1.34;100.00
6096;BME280;25081;42.698;23.298;2023-12-20T04:55:44;95415.60;;;-1.35;100.00
6096;BME280;25081;42.698;23.298;2023-12-20T04:57:55;95419.35;;;-1.24;100.00
6096;BME280;25081;42.698;23.298;2023-12-20T05:00:08;95413.20;;;-1.19;100.00
6096;BME280;25081;42.698;23.298;2023-12-20T05:02:19;95416.66;;;-1.28;100.00
6096;BME280;25081;42.698;23.298;2023-12-20T05:04:30;95418.79;;;-1.27;100.00
6096;BME280;25081;42.698;23.298;2023-12-20T05:06:40;95420.70;;;-1.20;100.00
6096;BME280;25081;42.698;23.298;2023-12-20T05:08:52;95410.77;;;-1.16;100.00
6096;BME280;25081;42.698;23.298;2023-12-20T05:11:04;95407.27;;;-1.34;100.00
6096;BME280;25081;42.698;23.298;2023-12-20T05:13:14;95408.77;;;-1.32;100.00
6096;BME280;25081;42.698;23.298;2023-12-20T05:15:25;95408.17;;;-1.39;100.00
6096;BME280;25081;42.698;23.298;2023-12-20T05:17:35;95408.77;;;-1.32;100.00
6096;BME280;25081;42.698;23.298;2023-12-20T05:19:46;95408.45;;;-1.19;100.00
6096;BME280;25081;42.698;23.298;2023-12-20T05:21:58;95404.67;;;-1.21;100.00
6096;BME280;25081;42.698;23.298;2023-12-20T05:24:09;95402.91;;;-1.30;100.00
6096;BME280;25081;42.698;23.298;2023-12-20T05:26:20;95405.48;;;-1.34;100.00
6096;BME280;25081;42.698;23.298;2023-12-20T05:28:30;95405.00;;;-1.33;100.00
6096;BME280;25081;42.698;23.298;2023-12-20T05:30:41;95400.75;;;-1.21;100.00
6096;BME280;25081;42.698;23.298;2023-12-20T05:32:51;95399.91;;;-1.35;100.00
6096;BME280;25081;42.698;23.298;2023-12-20T05:35:02;95391.89;;;-1.24;100.00
6096;BME280;25081;42.698;23.298;2023-12-20T05:37:14;95388.79;;;-1.23;100.00
6096;BME280;25081;42.698;23.298;2023-12-20T05:39:24;95390.16;;;-1.42;100.00
6096;BME280;25081;42.698;23.298;2023-12-20T05:41:35;95395.28;;;-1.37;100.00
6096;BME280;25081;42.698;23.298;2023-12-20T05:43:46;95392.48;;;-1.39;100.00
6096;BME280;25081;42.698;23.298;2023-12-20T05:45:56;95394.02;;;-1.56;100.00
6096;BME280;25081;42.698;23.298;2023-12-20T05:48:08;95380.03;;;-1.41;100.00
6096;BME280;25081;42.698;23.298;2023-12-20T05:50:18;95387.27;;;-1.49;100.00
6096;BME280;25081;42.698;23.298;2023-12-20T05:52:29;95380.21;;;-1.53;100.00
6096;BME280;25081;42.698;23.298;2023-12-20T05:54:39;95382.91;;;-1.68;100.00
6096;BME280;25081;42.698;23.298;2023-12-20T05:56:50;95385.30;;;-1.51;100.00
6096;BME280;25081;42.698;23.298;2023-12-20T05:59:01;95377.94;;;-1.52;100.00
6096;BME280;25081;42.698;23.298;2023-12-20T06:01:11;95378.20;;;-1.55;100.00
6096;BME280;25081;42.698;23.298;2023-12-20T06:03:22;95379.55;;;-1.74;100.00
6096;BME280;25081;42.698;23.298;2023-12-20T06:05:32;95380.62;;;-1.57;100.00
6096;BME280;25081;42.698;23.298;2023-12-20T06:07:43;95370.81;;;-1.69;100.00
6096;BME280;25081;42.698;23.298;2023-12-20T06:09:53;95373.11;;;-1.56;100.00
6096;BME280;25081;42.698;23.298;2023-12-20T06:12:05;95369.91;;;-1.54;100.00
6096;BME280;25081;42.698;23.298;2023-12-20T06:14:15;95377.57;;;-1.43;100.00
6096;BME280;25081;42.698;23.298;2023-12-20T06:16:26;95371.81;;;-1.56;100.00
6096;BME280;25081;42.698;23.298;2023-12-20T06:18:36;95368.78;;;-1.52;100.00
6096;BME280;25081;42.698;23.298;2023-12-20T06:20:47;95370.84;;;-1.55;100.00
6096;BME280;25081;42.698;23.298;2023-12-20T06:22:57;95382.77;;;-1.66;100.00
6096;BME280;25081;42.698;23.298;2023-12-20T06:25:09;95386.75;;;-1.53;100.00
6096;BME280;25081;42.698;23.298;2023-12-20T06:27:20;95378.61;;;-1.50;100.00
6096;BME280;25081;42.698;23.298;2023-12-20T06:29:30;95386.55;;;-1.65;100.00
6096;BME280;25081;42.698;23.298;2023-12-20T06:31:41;95371.38;;;-1.42;100.00
6096;BME280;25081;42.698;23.298;2023-12-20T06:33:52;95381.34;;;-1.41;100.00
6096;BME280;25081;42.698;23.298;2023-12-20T06:36:04;95380.64;;;-1.67;100.00
6096;BME280;25081;42.698;23.298;2023-12-20T06:38:14;95374.76;;;-1.55;100.00
6096;BME280;25081;42.698;23.298;2023-12-20T06:40:25;95365.22;;;-1.37;100.00
6096;BME280;25081;42.698;23.298;2023-12-20T06:42:35;95287.48;;;-2.05;100.00
6096;BME280;25081;42.698;23.298;2023-12-20T06:44:46;95369.20;;;-1.56;100.00
6096;BME280;25081;42.698;23.298;2023-12-20T06:46:56;95363.02;;;-1.65;100.00
6096;BME280;25081;42.698;23.298;2023-12-20T06:49:07;95363.27;;;-1.49;100.00
6096;BME280;25081;42.698;23.298;2023-12-20T06:51:17;95363.62;;;-1.57;100.00
6096;BME280;25081;42.698;23.298;2023-12-20T06:53:29;95365.20;;;-1.51;100.00
6096;BME280;25081;42.698;23.298;2023-12-20T06:55:39;95353.64;;;-1.25;100.00
6096;BME280;25081;42.698;23.298;2023-12-20T06:57:50;95359.62;;;-1.28;100.00
6096;BME280;25081;42.698;23.298;2023-12-20T07:00:00;95354.27;;;-1.74;100.00
6096;BME280;25081;42.698;23.298;2023-12-20T07:02:11;95354.05;;;-1.76;100.00
6096;BME280;25081;42.698;23.298;2023-12-20T07:04:21;95347.78;;;-2.03;100.00
6096;BME280;25081;42.698;23.298;2023-12-20T07:06:32;95346.20;;;-2.09;100.00
6096;BME280;25081;42.698;23.298;2023-12-20T07:08:42;95347.31;;;-2.12;100.00
6096;BME280;25081;42.698;23.298;2023-12-20T07:10:53;95343.70;;;-1.91;100.00
6096;BME280;25081;42.698;23.298;2023-12-20T07:13:04;95348.36;;;-1.52;100.00
6096;BME280;25081;42.698;23.298;2023-12-20T07:15:15;95346.91;;;-1.37;100.00
6096;BME280;25081;42.698;23.298;2023-12-20T07:17:25;95342.47;;;-1.40;100.00
6096;BME280;25081;42.698;23.298;2023-12-20T07:19:36;95348.14;;;-1.31;100.00
6096;BME280;25081;42.698;23.298;2023-12-20T07:21:46;95337.45;;;-1.24;100.00
6096;BME280;25081;42.698;23.298;2023-12-20T07:23:57;95332.03;;;-1.13;100.00
6096;BME280;25081;42.698;23.298;2023-12-20T07:26:07;95333.14;;;-1.02;100.00
6096;BME280;25081;42.698;23.298;2023-12-20T07:28:18;95330.53;;;-1.02;100.00
6096;BME280;25081;42.698;23.298;2023-12-20T07:30:28;95327.24;;;-1.04;100.00
6096;BME280;25081;42.698;23.298;2023-12-20T07:32:39;95328.72;;;-0.88;100.00
6096;BME280;25081;42.698;23.298;2023-12-20T07:34:49;95318.61;;;-0.55;100.00
6096;BME280;25081;42.698;23.298;2023-12-20T07:37:00;95323.78;;;-0.59;100.00
6096;BME280;25081;42.698;23.298;2023-12-20T07:39:10;95314.61;;;-0.45;100.00
6096;BME280;25081;42.698;23.298;2023-12-20T07:41:21;95322.82;;;-0.22;100.00
6096;BME280;25081;42.698;23.298;2023-12-20T07:43:32;95319.07;;;-0.20;100.00
6096;BME280;25081;42.698;23.298;2023-12-20T07:45:42;95322.66;;;-0.21;100.00
6096;BME280;25081;42.698;23.298;2023-12-20T07:47:53;95317.84;;;-0.30;100.00
6096;BME280;25081;42.698;23.298;2023-12-20T07:50:04;95318.45;;;-0.18;100.00
6096;BME280;25081;42.698;23.298;2023-12-20T07:52:15;95313.06;;;-0.34;100.00
6096;BME280;25081;42.698;23.298;2023-12-20T07:54:25;95308.20;;;-0.65;100.00
6096;BME280;25081;42.698;23.298;2023-12-20T07:56:36;95310.06;;;-0.39;100.00
6096;BME280;25081;42.698;23.298;2023-12-20T07:58:46;95308.17;;;-0.11;100.00
6096;BME280;25081;42.698;23.298;2023-12-20T08:00:58;95313.17;;;-0.40;100.00
6096;BME280;25081;42.698;23.298;2023-12-20T08:03:08;95316.61;;;-0.75;100.00
6096;BME280;25081;42.698;23.298;2023-12-20T08:05:19;95317.95;;;-0.71;100.00
6096;BME280;25081;42.698;23.298;2023-12-20T08:07:29;95307.75;;;-0.42;100.00
6096;BME280;25081;42.698;23.298;2023-12-20T08:09:40;95304.66;;;-0.20;100.00
6096;BME280;25081;42.698;23.298;2023-12-20T08:11:50;95310.78;;;-0.51;100.00
6096;BME280;25081;42.698;23.298;2023-12-20T08:14:01;95304.56;;;-0.50;100.00
6096;BME280;25081;42.698;23.298;2023-12-20T08:16:11;95302.16;;;-0.47;100.00
6096;BME280;25081;42.698;23.298;2023-12-20T08:18:22;95301.95;;;-0.50;100.00
6096;BME280;25081;42.698;23.298;2023-12-20T08:20:33;95287.52;;;-0.36;100.00
6096;BME280;25081;42.698;23.298;2023-12-20T08:22:43;95284.97;;;-0.06;100.00
6096;BME280;25081;42.698;23.298;2023-12-20T08:24:54;95285.48;;;-0.03;100.00
6096;BME280;25081;42.698;23.298;2023-12-20T08:27:05;95292.48;;;0.15;100.00
6096;BME280;25081;42.698;23.298;2023-12-20T08:29:16;95290.09;;;0.51;100.00
6096;BME280;25081;42.698;23.298;2023-12-20T08:31:26;95277.44;;;0.81;100.00
6096;BME280;25081;42.698;23.298;2023-12-20T08:33:37;95273.66;;;0.79;98.91
6096;BME280;25081;42.698;23.298;2023-12-20T08:35:47;95275.67;;;0.94;97.85
6096;BME280;25081;42.698;23.298;2023-12-20T08:37:58;95269.24;;;0.84;96.91
6096;BME280;25081;42.698;23.298;2023-12-20T08:40:10;95272.95;;;1.07;98.12
6096;BME280;25081;42.698;23.298;2023-12-20T08:42:20;95260.22;;;0.82;96.21
6096;BME280;25081;42.698;23.298;2023-12-20T08:44:31;95265.71;;;0.59;99.13
6096;BME280;25081;42.698;23.298;2023-12-20T08:46:42;95257.56;;;0.70;100.00
6096;BME280;25081;42.698;23.298;2023-12-20T08:48:52;95262.55;;;0.51;100.00
6096;BME280;25081;42.698;23.298;2023-12-20T08:51:03;95254.53;;;0.57;100.00
6096;BME280;25081;42.698;23.298;2023-12-20T08:53:13;95250.83;;;0.68;100.00
6096;BME280;25081;42.698;23.298;2023-12-20T08:55:24;95252.34;;;0.44;99.46
6096;BME280;25081;42.698;23.298;2023-12-20T08:57:34;95253.11;;;0.33;99.37
6096;BME280;25081;42.698;23.298;2023-12-20T08:59:45;95251.16;;;0.73;100.00
6096;BME280;25081;42.698;23.298;2023-12-20T09:01:55;95242.34;;;0.78;99.48
6096;BME280;25081;42.698;23.298;2023-12-20T09:04:06;95237.81;;;1.04;99.39
6096;BME280;25081;42.698;23.298;2023-12-20T09:06:16;95226.11;;;0.82;98.11
6096;BME280;25081;42.698;23.298;2023-12-20T09:08:27;95217.77;;;0.91;98.13
6096;BME280;25081;42.698;23.298;2023-12-20T09:10:38;95210.09;;;0.98;98.54
6096;BME280;25081;42.698;23.298;2023-12-20T09:12:49;95208.80;;;1.10;98.55
6096;BME280;25081;42.698;23.298;2023-12-20T09:14:59;95212.38;;;1.01;98.63
6096;BME280;25081;42.698;23.298;2023-12-20T09:17:10;95204.85;;;1.14;97.71
6096;BME280;25081;42.698;23.298;2023-12-20T09:19:20;95188.23;;;0.85;97.07
6096;BME280;25081;42.698;23.298;2023-12-20T09:21:31;95183.61;;;0.71;97.13
6096;BME280;25081;42.698;23.298;2023-12-20T09:23:41;95178.72;;;0.84;98.55
6096;BME280;25081;42.698;23.298;2023-12-20T09:25:52;95166.15;;;1.20;98.34
6096;BME280;25081;42.698;23.298;2023-12-20T09:28:03;95163.34;;;1.34;97.04
6096;BME280;25081;42.698;23.298;2023-12-20T09:30:13;95160.74;;;1.38;97.79
6096;BME280;25081;42.698;23.298;2023-12-20T09:32:24;95157.77;;;1.53;96.76
6096;BME280;25081;42.698;23.298;2023-12-20T09:34:35;95153.02;;;1.40;95.77
6096;BME280;25081;42.698;23.298;2023-12-20T09:36:45;95153.48;;;0.87;97.54
6096;BME280;25081;42.698;23.298;2023-12-20T09:38:56;95155.30;;;0.99;97.49
6096;BME280;25081;42.698;23.298;2023-12-20T09:41:07;95146.62;;;1.31;98.56
6096;BME280;25081;42.698;23.298;2023-12-20T09:43:18;95133.95;;;1.63;98.59
6096;BME280;25081;42.698;23.298;2023-12-20T09:45:28;95126.69;;;1.81;97.41
6096;BME280;25081;42.698;23.298;2023-12-20T09:47:38;95126.52;;;1.83;95.36
6096;BME280;25081;42.698;23.298;2023-12-20T09:49:49;95117.93;;;2.05;94.50
6096;BME280;25081;42.698;23.298;2023-12-20T09:52:00;95114.23;;;2.26;94.74
6096;BME280;25081;42.698;23.298;2023-12-20T09:54:10;95114.84;;;2.68;93.51
6096;BME280;25081;42.698;23.298;2023-12-20T09:56:20;95112.52;;;2.73;92.84
6096;BME280;25081;42.698;23.298;2023-12-20T09:58:31;95109.94;;;2.87;90.71
6096;BME280;25081;42.698;23.298;2023-12-20T10:00:42;95106.13;;;2.94;90.21
6096;BME280;25081;42.698;23.298;2023-12-20T10:02:54;95101.36;;;2.94;91.02
6096;BME280;25081;42.698;23.298;2023-12-20T10:05:06;95100.02;;;3.39;89.85
6096;BME280;25081;42.698;23.298;2023-12-20T10:07:15;95094.83;;;3.65;88.74
6096;BME280;25081;42.698;23.298;2023-12-20T10:09:25;95090.22;;;3.82;88.12
6096;BME280;25081;42.698;23.298;2023-12-20T10:11:37;95090.03;;;3.68;83.42
6096;BME280;25081;42.698;23.298;2023-12-20T10:13:48;95088.03;;;2.37;89.62
6096;BME280;25081;42.698;23.298;2023-12-20T10:15:59;95082.98;;;3.94;88.06
6096;BME280;25081;42.698;23.298;2023-12-20T10:18:09;95075.20;;;4.12;85.20
6096;BME280;25081;42.698;23.298;2023-12-20T10:20:19;95080.97;;;2.92;84.99
6096;BME280;25081;42.698;23.298;2023-12-20T10:22:35;95064.53;;;3.46;86.42
6096;BME280;25081;42.698;23.298;2023-12-20T10:24:58;95054.42;;;4.13;85.30
6096;BME280;25081;42.698;23.298;2023-12-20T10:27:09;95058.78;;;4.20;81.91
6096;BME280;25081;42.698;23.298;2023-12-20T10:29:19;95052.66;;;3.31;83.78
6096;BME280;25081;42.698;23.298;2023-12-20T10:31:31;95042.92;;;3.95;84.87
6096;BME280;25081;42.698;23.298;2023-12-20T10:33:40;95045.79;;;4.44;83.72
6096;BME280;25081;42.698;23.298;2023-12-20T10:35:51;95040.16;;;4.79;81.77
6096;BME280;25081;42.698;23.298;2023-12-20T10:38:03;95033.02;;;4.37;82.96
6096;BME280;25081;42.698;23.298;2023-12-20T10:40:13;95031.41;;;4.57;82.61
6096;BME280;25081;42.698;23.298;2023-12-20T10:42:23;95031.53;;;4.71;82.07
6096;BME280;25081;42.698;23.298;2023-12-20T10:44:34;95025.44;;;5.13;79.97
6096;BME280;25081;42.698;23.298;2023-12-20T10:46:44;95012.62;;;6.18;78.62
6096;BME280;25081;42.698;23.298;2023-12-20T10:48:55;95001.85;;;6.63;75.69
6096;BME280;25081;42.698;23.298;2023-12-20T10:51:06;94999.16;;;7.13;74.11
6096;BME280;25081;42.698;23.298;2023-12-20T10:53:17;94989.95;;;7.69;71.40
6096;BME280;25081;42.698;23.298;2023-12-20T10:55:27;94989.66;;;6.82;71.83
6096;BME280;25081;42.698;23.298;2023-12-20T10:57:41;95004.97;;;5.32;73.85
6096;BME280;25081;42.698;23.298;2023-12-20T10:59:51;94992.41;;;6.71;75.68
6096;BME280;25081;42.698;23.298;2023-12-20T11:02:02;94985.33;;;7.05;72.36
6096;BME280;25081;42.698;23.298;2023-12-20T11:04:14;94982.76;;;7.21;70.96
6096;BME280;25081;42.698;23.298;2023-12-20T11:06:29;94979.67;;;6.34;73.62
6096;BME280;25081;42.698;23.298;2023-12-20T11:08:42;94975.98;;;5.87;75.91
6096;BME280;25081;42.698;23.298;2023-12-20T11:10:51;94972.13;;;5.31;77.56
6096;BME280;25081;42.698;23.298;2023-12-20T11:13:06;94971.74;;;4.63;79.25
6096;BME280;25081;42.698;23.298;2023-12-20T11:15:14;94967.00;;;3.21;82.55
6096;BME280;25081;42.698;23.298;2023-12-20T11:17:24;94973.34;;;2.74;87.03
6096;BME280;25081;42.698;23.298;2023-12-20T11:19:37;94968.59;;;3.07;87.65
6096;BME280;25081;42.698;23.298;2023-12-20T11:21:48;94967.51;;;2.64;87.41
6096;BME280;25081;42.698;23.298;2023-12-20T11:23:58;94960.50;;;2.75;88.87
6096;BME280;25081;42.698;23.298;2023-12-20T11:26:09;94958.57;;;2.69;88.79
6096;BME280;25081;42.698;23.298;2023-12-20T11:28:22;94952.70;;;2.44;89.51